Main page
METAR-TAF:

METAR-TAF

Airports :

Ushuaia, Argentina

Ushuaia – Malvinas Argentinas International Airport

latitude: 54-48S, longitude: 068-19W, elevation: 16 m

Current weather observation

The report was made 1 hour and 8 minutes ago, at 16:00 UTC
Wind 25 kt from the Southwest
Temperature -3°C
Humidity 93%
Pressure 993 hPa
Visibility: 0800 m
Overcast at a height of 1000 ft

METAR: SAWH 231600Z 23025KT 0800 -SN-DRSN OVC010 M03/M04 Q0993

Time: 14:08 (17:08 UTC)

Forecast

The report was made 6 hours and 8 minutes ago, at 11:00 UTC
Forecast valid from 23 at 12 UTC to 24 at 12 UTC
Wind 25 kt from the Southwest with gusts up to 35 kt
Visibility: 5000 m
Overcast at a height of 1000 ft
Broken clouds at a height of 5000 ft
light snow
Temporary
between 20 and 02 UTC
Visibility: 1000 m
heavy snow

TAF: SAWH 231100Z 2312/2412 23025G35KT 5000 -SN OVC010 BKN050 TX00/2319Z TNM05/2410Z TEMPO 20020G30KT 1000 +SN

Weather observations and forecasts of more than 4000 airports (METAR and TAF reports).

The available stations are represented by yellow and red dots on the map.

Hover mouse over dot to see the name of the station.

Then click to see weather observations and forecasts.

To change the map : click on the green buttons with a black cross to zoom in, on the green button with a dash to zoom out, or on the green arrows for adjacent maps.


METAR-TAF: